Darstellungsparameter: Aktuell verwendete Einstellungen:
Skalierung der Graphiken ... ?
xyx+y,   Skalierungsfaktor:      Skalierung: Modus: x, Faktor: 1
Darstellungszeitraum ... ?
Vom - - bis: - -   Zeitraum: 11.05.2022 - 11.05.2022
Min/Max/Avg-Anzeige ... ?
Zeige MMA aktuell
Zeige MMA Monat
Zeige MMA alles
Zeige --A aktuell
Zeige --A Monat
Zeige --A alles
Keine MMA-Anzeige
MMA:
Average (ber die Originaldaten)
MMA-Basis: 11.05.2022 - 11.05.2022
Quicknavigation für Darstellung... ?
Tage:      1T, 2T, 3T, 5T -1T -2T -3T -5T +1T +2T +3T +5T
Wochen: 1W, 2W, 3W -1W -2W -3W +1W +2W +3W
Monate: 1M, 3M, 6M -1M -3M -6M +1M +3M +6M
Jahre:    1J, 3J, 5J, 10J -1J -3J -5J -10J +1J +3J +5J +10J
Nutze für die Darstellung ... ?
Originaldaten oder Mittelwerte auf ...
Stundenbasis Tagesbasis Wochenbasis
Monatsbasis Jahresbasis      Datenbasis: Original-Daten
Darstellen als:
Statistik (Auto) Statistik J:M      Darstellung:
Zur Graphik,    zurück zur Übersicht aller Sensoren.
 
Tabellarische Datenbersicht: ?
 
Sensor: Nr:Datum:Temp:Abs-Feuchte:Windchill:Wind:
Aussen-T/F 1 11-05-2022 00:00:00 15.7 C 10.17 g/m*3 15.7 C 0 km/h
2 11-05-2022 00:05:00 15.7 C 10.3 g/m*3 15.7 C 0 km/h
3 11-05-2022 00:10:00 15.7 C 10.3 g/m*3 15.7 C 0 km/h
4 11-05-2022 00:15:00 15.6 C 10.24 g/m*3 15.6 C 0 km/h
5 11-05-2022 00:20:00 15.6 C 10.24 g/m*3 15.6 C 1.6 km/h
6 11-05-2022 00:25:00 15.6 C 10.11 g/m*3 15.6 C 3.2 km/h
7 11-05-2022 00:30:00 15.7 C 10.17 g/m*3 15.7 C 3.2 km/h
8 11-05-2022 00:35:00 15.8 C 10.23 g/m*3 15.8 C 4.8 km/h
9 11-05-2022 00:40:00 15.9 C 10.16 g/m*3 15.9 C 4.8 km/h
10 11-05-2022 00:45:00 16 C 10.22 g/m*3 16 C 4.8 km/h
11 11-05-2022 00:50:00 16.1 C 10.28 g/m*3 16.1 C 3.2 km/h
12 11-05-2022 00:55:00 16.2 C 10.2 g/m*3 16.2 C 6.4 km/h
13 11-05-2022 01:00:00 16.2 C 10.34 g/m*3 16.2 C 3.2 km/h
14 11-05-2022 01:05:00 16.1 C 10.14 g/m*3 16.1 C 3.2 km/h
15 11-05-2022 01:10:00 16.1 C 10.14 g/m*3 16.1 C 1.6 km/h
16 11-05-2022 01:15:00 16.1 C 10.28 g/m*3 16.1 C 0 km/h
17 11-05-2022 01:20:00 15.9 C 10.16 g/m*3 15.9 C 3.2 km/h
18 11-05-2022 01:25:00 15.9 C 10.29 g/m*3 15.9 C 3.2 km/h
19 11-05-2022 01:30:00 15.8 C 10.23 g/m*3 15.8 C 0 km/h
20 11-05-2022 01:35:00 15.7 C 10.3 g/m*3 15.7 C 0 km/h
21 11-05-2022 01:40:00 15.6 C 10.24 g/m*3 15.6 C 0 km/h
22 11-05-2022 01:45:00 15.5 C 10.31 g/m*3 15.5 C 0 km/h
23 11-05-2022 01:50:00 15.4 C 10.25 g/m*3 15.4 C 1.6 km/h
24 11-05-2022 01:55:00 15.3 C 10.32 g/m*3 15.3 C 0 km/h
25 11-05-2022 02:00:00 15.3 C 10.32 g/m*3 15.3 C 1.6 km/h
Sensor: Nr:Datum:Temp:Abs-Feuchte:Windchill:Wind:
Aussen-T/F 26 11-05-2022 02:05:00 15.2 C 10.25 g/m*3 15.2 C 1.6 km/h
27 11-05-2022 02:10:00 15.1 C 10.19 g/m*3 15.1 C 0 km/h
28 11-05-2022 02:15:00 15.1 C 10.32 g/m*3 15.1 C 0 km/h
29 11-05-2022 02:20:00 15 C 10.26 g/m*3 15 C 0 km/h
30 11-05-2022 02:25:00 14.9 C 10.32 g/m*3 14.9 C 0 km/h
31 11-05-2022 02:30:00 14.9 C 10.32 g/m*3 14.9 C 0 km/h
32 11-05-2022 02:35:00 14.9 C 10.32 g/m*3 14.9 C 0 km/h
33 11-05-2022 02:40:00 14.9 C 10.32 g/m*3 14.9 C 1.6 km/h
34 11-05-2022 02:45:00 14.9 C 10.45 g/m*3 14.9 C 0 km/h
35 11-05-2022 02:50:00 14.8 C 10.39 g/m*3 14.8 C 3.2 km/h
36 11-05-2022 02:55:00 14.8 C 10.26 g/m*3 14.8 C 0 km/h
37 11-05-2022 03:00:00 14.8 C 10.39 g/m*3 14.8 C 1.6 km/h
38 11-05-2022 03:05:00 14.8 C 10.39 g/m*3 14.8 C 1.6 km/h
39 11-05-2022 03:10:00 14.8 C 10.39 g/m*3 14.8 C 3.2 km/h
40 11-05-2022 03:15:00 14.8 C 10.39 g/m*3 14.8 C 1.6 km/h
41 11-05-2022 03:20:00 14.8 C 10.39 g/m*3 14.8 C 0 km/h
42 11-05-2022 03:25:00 14.9 C 10.45 g/m*3 14.9 C 0 km/h
43 11-05-2022 03:30:00 14.8 C 10.39 g/m*3 14.8 C 3.2 km/h
44 11-05-2022 03:35:00 14.9 C 10.45 g/m*3 14.9 C 0 km/h
45 11-05-2022 03:40:00 14.9 C 10.45 g/m*3 14.9 C 0 km/h
46 11-05-2022 03:45:00 14.9 C 10.45 g/m*3 14.9 C 0 km/h
47 11-05-2022 03:50:00 14.8 C 10.39 g/m*3 14.8 C 0 km/h
48 11-05-2022 03:55:00 14.8 C 10.39 g/m*3 14.8 C 0 km/h
49 11-05-2022 04:00:00 14.8 C 10.39 g/m*3 14.8 C 1.6 km/h
50 11-05-2022 04:05:00 14.7 C 10.32 g/m*3 14.7 C 0 km/h
Sensor: Nr:Datum:Temp:Abs-Feuchte:Windchill:Wind:
Aussen-T/F 51 11-05-2022 04:10:00 14.6 C 10.26 g/m*3 14.6 C 0 km/h
52 11-05-2022 04:15:00 14.5 C 10.2 g/m*3 14.5 C 0 km/h
53 11-05-2022 04:20:00 14.3 C 10.07 g/m*3 14.3 C 0 km/h
54 11-05-2022 04:25:00 14.2 C 10.01 g/m*3 14.2 C 1.6 km/h
55 11-05-2022 04:30:00 14 C 10.01 g/m*3 14 C 0 km/h
56 11-05-2022 04:35:00 13.8 C 9.89 g/m*3 13.8 C 0 km/h
57 11-05-2022 04:40:00 13.7 C 9.83 g/m*3 13.7 C 0 km/h
58 11-05-2022 04:45:00 13.6 C 9.89 g/m*3 13.6 C 0 km/h
59 11-05-2022 04:50:00 13.4 C 9.76 g/m*3 13.4 C 0 km/h
60 11-05-2022 04:55:00 13.3 C 9.82 g/m*3 13.3 C 0 km/h
61 11-05-2022 05:00:00 13.2 C 9.76 g/m*3 13.2 C 0 km/h
62 11-05-2022 05:05:00 13.2 C 9.76 g/m*3 13.2 C 0 km/h
63 11-05-2022 05:10:00 13.1 C 9.81 g/m*3 13.1 C 0 km/h
64 11-05-2022 05:15:00 13 C 9.75 g/m*3 13 C 0 km/h
65 11-05-2022 05:20:00 12.9 C 9.69 g/m*3 12.9 C 0 km/h
66 11-05-2022 05:25:00 12.8 C 9.74 g/m*3 12.8 C 0 km/h
67 11-05-2022 05:30:00 12.8 C 9.74 g/m*3 12.8 C 0 km/h
68 11-05-2022 05:35:00 12.7 C 9.68 g/m*3 12.7 C 0 km/h
69 11-05-2022 05:40:00 12.6 C 9.62 g/m*3 12.6 C 0 km/h
70 11-05-2022 05:45:00 12.6 C 9.62 g/m*3 12.6 C 0 km/h
71 11-05-2022 05:50:00 12.5 C 9.68 g/m*3 12.5 C 1.6 km/h
72 11-05-2022 05:55:00 12.5 C 9.68 g/m*3 12.5 C 3.2 km/h
73 11-05-2022 06:00:00 12.5 C 9.78 g/m*3 12.5 C 1.6 km/h
74 11-05-2022 06:05:00 12.6 C 9.85 g/m*3 12.6 C 1.6 km/h
75 11-05-2022 06:10:00 12.6 C 9.85 g/m*3 12.6 C 3.2 km/h
Sensor: Nr:Datum:Temp:Abs-Feuchte:Windchill:Wind:
Aussen-T/F 76 11-05-2022 06:15:00 12.7 C 9.91 g/m*3 12.7 C 3.2 km/h
77 11-05-2022 06:20:00 12.8 C 9.97 g/m*3 12.8 C 3.2 km/h
78 11-05-2022 06:25:00 12.9 C 10.03 g/m*3 12.9 C 3.2 km/h
79 11-05-2022 06:30:00 13.1 C 10.16 g/m*3 13.1 C 6.4 km/h
80 11-05-2022 06:35:00 13.2 C 10.1 g/m*3 13.2 C 4.8 km/h
81 11-05-2022 06:40:00 13.3 C 10.17 g/m*3 13.3 C 4.8 km/h
82 11-05-2022 06:45:00 13.4 C 10.11 g/m*3 13.4 C 1.6 km/h
83 11-05-2022 06:50:00 13.6 C 10.24 g/m*3 13.6 C 4.8 km/h
84 11-05-2022 06:55:00 13.7 C 10.3 g/m*3 13.7 C 3.2 km/h
85 11-05-2022 07:00:00 13.7 C 10.18 g/m*3 13.7 C 4.8 km/h
86 11-05-2022 07:05:00 13.8 C 10.25 g/m*3 13.8 C 8.1 km/h
87 11-05-2022 07:10:00 13.8 C 10.25 g/m*3 13.8 C 6.4 km/h
88 11-05-2022 07:15:00 13.9 C 10.31 g/m*3 13.9 C 6.4 km/h
89 11-05-2022 07:20:00 14 C 10.37 g/m*3 14 C 9.7 km/h
90 11-05-2022 07:25:00 14.1 C 10.44 g/m*3 14.1 C 9.7 km/h
91 11-05-2022 07:30:00 14.2 C 10.38 g/m*3 14.2 C 8.1 km/h
92 11-05-2022 07:35:00 14.2 C 10.38 g/m*3 14.2 C 3.2 km/h
93 11-05-2022 07:40:00 14.3 C 10.44 g/m*3 14.3 C 4.8 km/h
94 11-05-2022 07:45:00 14.3 C 10.44 g/m*3 14.3 C 3.2 km/h
95 11-05-2022 07:50:00 14.4 C 10.63 g/m*3 14.4 C 1.6 km/h
96 11-05-2022 07:55:00 14.5 C 10.7 g/m*3 14.5 C 1.6 km/h
97 11-05-2022 08:00:00 14.6 C 10.76 g/m*3 14.6 C 1.6 km/h
98 11-05-2022 08:05:00 14.6 C 10.76 g/m*3 14.6 C 1.6 km/h
99 11-05-2022 08:10:00 14.7 C 10.83 g/m*3 14.7 C 1.6 km/h
100 11-05-2022 08:15:00 14.8 C 10.89 g/m*3 14.8 C 4.8 km/h
Sensor: Nr:Datum:Temp:Abs-Feuchte:Windchill:Wind:
Aussen-T/F 101 11-05-2022 08:20:00 14.9 C 10.96 g/m*3 14.9 C 3.2 km/h
102 11-05-2022 08:25:00 15.1 C 10.97 g/m*3 15.1 C 4.8 km/h
103 11-05-2022 08:30:00 15.2 C 11.03 g/m*3 15.2 C 6.4 km/h
104 11-05-2022 08:35:00 15.4 C 11.3 g/m*3 15.4 C 3.2 km/h
105 11-05-2022 08:40:00 15.5 C 11.24 g/m*3 15.5 C 6.4 km/h
106 11-05-2022 08:45:00 15.7 C 11.37 g/m*3 15.7 C 4.8 km/h
107 11-05-2022 08:50:00 15.9 C 11.38 g/m*3 15.9 C 6.4 km/h
108 11-05-2022 08:55:00 16.1 C 11.51 g/m*3 16.1 C 1.6 km/h
109 11-05-2022 09:00:00 16.2 C 11.58 g/m*3 16.2 C 4.8 km/h
110 11-05-2022 09:05:00 16.4 C 11.72 g/m*3 16.4 C 6.4 km/h
111 11-05-2022 09:10:00 16.6 C 11.72 g/m*3 16.6 C 8.1 km/h
112 11-05-2022 09:15:00 16.9 C 11.79 g/m*3 16.9 C 6.4 km/h
113 11-05-2022 09:20:00 17.3 C 11.93 g/m*3 17.3 C 8.1 km/h
114 11-05-2022 09:25:00 17.8 C 11.99 g/m*3 17.8 C 9.7 km/h
115 11-05-2022 09:30:00 18.3 C 12.04 g/m*3 18.3 C 8.1 km/h
116 11-05-2022 09:35:00 18.7 C 12.01 g/m*3 18.7 C 9.7 km/h
117 11-05-2022 09:40:00 18.9 C 12.15 g/m*3 18.9 C 8.1 km/h
118 11-05-2022 09:45:00 19.2 C 12.37 g/m*3 19.2 C 3.2 km/h
119 11-05-2022 09:50:00 19.3 C 12.27 g/m*3 19.3 C 8.1 km/h
120 11-05-2022 09:55:00 19.5 C 12.25 g/m*3 19.5 C 3.2 km/h
121 11-05-2022 10:00:00 19.8 C 12.3 g/m*3 19.8 C 4.8 km/h
122 11-05-2022 10:05:00 19.9 C 12.2 g/m*3 19.9 C 4.8 km/h
123 11-05-2022 10:10:00 20.2 C 12.24 g/m*3 20.2 C 3.2 km/h
124 11-05-2022 10:15:00 20.6 C 12.53 g/m*3 20.6 C 6.4 km/h
125 11-05-2022 10:20:00 20.8 C 12.31 g/m*3 20.8 C 6.4 km/h
Sensor: Nr:Datum:Temp:Abs-Feuchte:Windchill:Wind:
Aussen-T/F 126 11-05-2022 10:25:00 21.2 C 12.23 g/m*3 21.2 C 11.3 km/h
127 11-05-2022 10:30:00 21.6 C 12.14 g/m*3 21.6 C 9.7 km/h
128 11-05-2022 10:35:00 22.1 C 12.1 g/m*3 22.1 C 12.9 km/h
129 11-05-2022 10:40:00 22.4 C 12.11 g/m*3 22.4 C 11.3 km/h
130 11-05-2022 10:45:00 22.7 C 12.32 g/m*3 22.7 C 9.7 km/h
131 11-05-2022 10:50:00 23 C 12.33 g/m*3 23 C 8.1 km/h
132 11-05-2022 10:55:00 23.3 C 12.55 g/m*3 23.3 C 12.9 km/h
133 11-05-2022 11:00:00 23.4 C 12.41 g/m*3 23.4 C 12.9 km/h
134 11-05-2022 11:05:00 23.7 C 11.98 g/m*3 23.7 C 16.1 km/h
135 11-05-2022 11:10:00 23.9 C 12.11 g/m*3 23.9 C 9.7 km/h
136 11-05-2022 11:15:00 24.2 C 11.88 g/m*3 24.2 C 20.9 km/h
137 11-05-2022 11:20:00 24.3 C 11.95 g/m*3 24.3 C 11.3 km/h
138 11-05-2022 11:25:00 24.5 C 11.86 g/m*3 24.5 C 14.5 km/h
139 11-05-2022 11:30:00 24.7 C 12 g/m*3 24.7 C 12.9 km/h
140 11-05-2022 11:35:00 24.9 C 11.9 g/m*3 24.9 C 12.9 km/h
141 11-05-2022 11:40:00 25.2 C 12.11 g/m*3 25.2 C 12.9 km/h
142 11-05-2022 11:45:00 25.5 C 11.84 g/m*3 25.5 C 16.1 km/h
143 11-05-2022 11:50:00 25.7 C 11.73 g/m*3 25.7 C 20.9 km/h
144 11-05-2022 11:55:00 25.7 C 11.49 g/m*3 25.7 C 20.9 km/h
145 11-05-2022 12:00:00 25.8 C 11.56 g/m*3 25.8 C 19.3 km/h
146 11-05-2022 12:05:00 25.9 C 11.86 g/m*3 25.9 C 16.1 km/h
147 11-05-2022 12:10:00 26.1 C 11.26 g/m*3 26.1 C 17.7 km/h
148 11-05-2022 12:15:00 26.3 C 11.88 g/m*3 26.3 C 14.5 km/h
149 11-05-2022 12:20:00 26.4 C 11.7 g/m*3 26.4 C 12.9 km/h
150 11-05-2022 12:25:00 26.6 C 11.58 g/m*3 26.6 C 16.1 km/h
Sensor: Nr:Datum:Temp:Abs-Feuchte:Windchill:Wind:
Aussen-T/F 151 11-05-2022 12:30:00 26.8 C 11.71 g/m*3 26.8 C 16.1 km/h
152 11-05-2022 12:35:00 26.8 C 11.45 g/m*3 26.8 C 20.9 km/h
153 11-05-2022 12:40:00 26.9 C 11.77 g/m*3 26.9 C 16.1 km/h
154 11-05-2022 12:45:00 27.1 C 11.65 g/m*3 27.1 C 12.9 km/h
155 11-05-2022 12:50:00 27.2 C 10.93 g/m*3 27.2 C 20.9 km/h
156 11-05-2022 12:55:00 27.2 C 11.45 g/m*3 27.2 C 19.3 km/h
157 11-05-2022 13:00:00 27.3 C 11.25 g/m*3 27.3 C 27.4 km/h
158 11-05-2022 13:05:00 27.3 C 11.77 g/m*3 27.3 C 27.4 km/h
159 11-05-2022 13:10:00 27.5 C 11.38 g/m*3 27.5 C 17.7 km/h
160 11-05-2022 13:15:00 27.6 C 11.44 g/m*3 27.6 C 17.7 km/h
161 11-05-2022 13:20:00 27.7 C 11.77 g/m*3 27.7 C 12.9 km/h
162 11-05-2022 13:25:00 27.8 C 11.57 g/m*3 27.8 C 19.3 km/h
163 11-05-2022 13:30:00 27.8 C 11.57 g/m*3 27.8 C 20.9 km/h
164 11-05-2022 13:35:00 27.8 C 11.57 g/m*3 27.8 C 19.3 km/h
165 11-05-2022 13:40:00 28 C 11.69 g/m*3 28 C 16.1 km/h
166 11-05-2022 13:45:00 28.3 C 11.61 g/m*3 28.3 C 16.1 km/h
167 11-05-2022 13:50:00 28.4 C 12.51 g/m*3 28.4 C 14.5 km/h
168 11-05-2022 13:55:00 28.7 C 11.87 g/m*3 28.7 C 11.3 km/h
169 11-05-2022 14:00:00 28.8 C 11.36 g/m*3 28.8 C 17.7 km/h
170 11-05-2022 14:05:00 28.7 C 11.87 g/m*3 28.7 C 19.3 km/h
171 11-05-2022 14:10:00 28.8 C 11.36 g/m*3 28.8 C 19.3 km/h
172 11-05-2022 14:15:00 28.7 C 11.3 g/m*3 28.7 C 17.7 km/h
173 11-05-2022 14:20:00 28.7 C 11.3 g/m*3 28.7 C 24.1 km/h
174 11-05-2022 14:25:00 28.7 C 10.46 g/m*3 28.7 C 22.5 km/h
175 11-05-2022 14:30:00 28.7 C 11.02 g/m*3 28.7 C 19.3 km/h
Sensor: Nr:Datum:Temp:Abs-Feuchte:Windchill:Wind:
Aussen-T/F 176 11-05-2022 14:35:00 28.9 C 10.86 g/m*3 28.9 C 19.3 km/h
177 11-05-2022 14:40:00 28.8 C 10.8 g/m*3 28.8 C 22.5 km/h
178 11-05-2022 14:45:00 28.9 C 11.43 g/m*3 28.9 C 16.1 km/h
179 11-05-2022 14:50:00 29.1 C 11.26 g/m*3 29.1 C 16.1 km/h
180 11-05-2022 14:55:00 29.2 C 11.03 g/m*3 29.2 C 17.7 km/h
181 11-05-2022 15:00:00 29.1 C 11.26 g/m*3 29.1 C 20.9 km/h
182 11-05-2022 15:05:00 29.2 C 11.03 g/m*3 29.2 C 20.9 km/h
183 11-05-2022 15:10:00 29.4 C 10.57 g/m*3 29.4 C 22.5 km/h
184 11-05-2022 15:15:00 29.2 C 10.45 g/m*3 29.2 C 20.9 km/h
185 11-05-2022 15:20:00 29.2 C 10.45 g/m*3 29.2 C 17.7 km/h
186 11-05-2022 15:25:00 29.4 C 10.57 g/m*3 29.4 C 16.1 km/h
187 11-05-2022 15:30:00 29.8 C 10.5 g/m*3 29.8 C 12.9 km/h
188 11-05-2022 15:35:00 30.1 C 10.06 g/m*3 30.1 C 24.1 km/h
189 11-05-2022 15:40:00 29.7 C 10.14 g/m*3 29.7 C 22.5 km/h
190 11-05-2022 15:45:00 29.6 C 9.79 g/m*3 29.6 C 24.1 km/h
191 11-05-2022 15:50:00 29.6 C 10.09 g/m*3 29.6 C 19.3 km/h
192 11-05-2022 15:55:00 29.7 C 9.55 g/m*3 29.7 C 24.1 km/h
193 11-05-2022 16:00:00 29.6 C 9.79 g/m*3 29.6 C 25.7 km/h
194 11-05-2022 16:05:00 29.4 C 9.39 g/m*3 29.4 C 27.4 km/h
195 11-05-2022 16:10:00 29.5 C 9.74 g/m*3 29.5 C 14.5 km/h
196 11-05-2022 16:15:00 29.6 C 9.5 g/m*3 29.6 C 24.1 km/h
197 11-05-2022 16:20:00 29.6 C 9.5 g/m*3 29.6 C 19.3 km/h
198 11-05-2022 16:25:00 29.6 C 9.2 g/m*3 29.6 C 17.7 km/h
199 11-05-2022 16:30:00 29.7 C 9.25 g/m*3 29.7 C 22.5 km/h
200 11-05-2022 16:35:00 29.8 C 9.3 g/m*3 29.8 C 17.7 km/h
Sensor: Nr:Datum:Temp:Abs-Feuchte:Windchill:Wind:
Aussen-T/F 201 11-05-2022 16:40:00 30 C 9.1 g/m*3 30 C 17.7 km/h
202 11-05-2022 16:45:00 29.8 C 9.3 g/m*3 29.8 C 27.4 km/h
203 11-05-2022 16:50:00 29.6 C 8.9 g/m*3 29.6 C 19.3 km/h
204 11-05-2022 16:55:00 29.6 C 8.9 g/m*3 29.6 C 16.1 km/h
205 11-05-2022 17:00:00 29.8 C 9 g/m*3 29.8 C 14.5 km/h
206 11-05-2022 17:05:00 29.9 C 9.35 g/m*3 29.9 C 16.1 km/h
207 11-05-2022 17:10:00 30 C 9.1 g/m*3 30 C 17.7 km/h
208 11-05-2022 17:15:00 29.9 C 9.05 g/m*3 29.9 C 16.1 km/h
209 11-05-2022 17:20:00 30 C 9.1 g/m*3 30 C 16.1 km/h
210 11-05-2022 17:25:00 30 C 9.1 g/m*3 30 C 16.1 km/h
211 11-05-2022 17:30:00 30.1 C 9.45 g/m*3 30.1 C 11.3 km/h
212 11-05-2022 17:35:00 30.3 C 9.55 g/m*3 30.3 C 12.9 km/h
213 11-05-2022 17:40:00 30.2 C 9.2 g/m*3 30.2 C 20.9 km/h
214 11-05-2022 17:45:00 29.9 C 9.05 g/m*3 29.9 C 16.1 km/h
215 11-05-2022 17:50:00 29.8 C 9 g/m*3 29.8 C 14.5 km/h
216 11-05-2022 17:55:00 29.8 C 9.3 g/m*3 29.8 C 14.5 km/h
217 11-05-2022 18:00:00 29.8 C 9.3 g/m*3 29.8 C 16.1 km/h
218 11-05-2022 18:05:00 29.7 C 9.55 g/m*3 29.7 C 12.9 km/h
219 11-05-2022 18:10:00 29.8 C 9.3 g/m*3 29.8 C 8.1 km/h
220 11-05-2022 18:15:00 29.8 C 9.6 g/m*3 29.8 C 8.1 km/h
221 11-05-2022 18:20:00 29.7 C 9.55 g/m*3 29.7 C 16.1 km/h
222 11-05-2022 18:25:00 29.5 C 9.15 g/m*3 29.5 C 9.7 km/h
223 11-05-2022 18:30:00 29.2 C 8.71 g/m*3 29.2 C 20.9 km/h
224 11-05-2022 18:35:00 28.9 C 8.86 g/m*3 28.9 C 16.1 km/h
225 11-05-2022 18:40:00 28.7 C 9.04 g/m*3 28.7 C 19.3 km/h
Sensor: Nr:Datum:Temp:Abs-Feuchte:Windchill:Wind:
Aussen-T/F 226 11-05-2022 18:45:00 28.6 C 8.99 g/m*3 28.6 C 14.5 km/h
227 11-05-2022 18:50:00 28.3 C 8.85 g/m*3 28.3 C 22.5 km/h
228 11-05-2022 18:55:00 27.9 C 8.92 g/m*3 27.9 C 17.7 km/h
229 11-05-2022 19:00:00 27.7 C 8.29 g/m*3 27.7 C 22.5 km/h
230 11-05-2022 19:05:00 27.4 C 8.42 g/m*3 27.4 C 12.9 km/h
231 11-05-2022 19:10:00 27.3 C 8.37 g/m*3 27.3 C 16.1 km/h
232 11-05-2022 19:15:00 27.1 C 8.54 g/m*3 27.1 C 12.9 km/h
233 11-05-2022 19:20:00 27 C 8.49 g/m*3 27 C 14.5 km/h
234 11-05-2022 19:25:00 26.9 C 8.7 g/m*3 26.9 C 22.5 km/h
235 11-05-2022 19:30:00 26.9 C 8.7 g/m*3 26.9 C 17.7 km/h
236 11-05-2022 19:35:00 26.8 C 8.91 g/m*3 26.8 C 19.3 km/h
237 11-05-2022 19:40:00 26.7 C 8.86 g/m*3 26.7 C 16.1 km/h
238 11-05-2022 19:45:00 26.5 C 9.01 g/m*3 26.5 C 14.5 km/h
239 11-05-2022 19:50:00 26.4 C 8.71 g/m*3 26.4 C 24.1 km/h
240 11-05-2022 19:55:00 26.3 C 8.66 g/m*3 26.3 C 11.3 km/h
241 11-05-2022 20:00:00 26.1 C 8.81 g/m*3 26.1 C 11.3 km/h
242 11-05-2022 20:05:00 25.9 C 9.2 g/m*3 25.9 C 12.9 km/h
243 11-05-2022 20:10:00 25.8 C 9.15 g/m*3 25.8 C 12.9 km/h
244 11-05-2022 20:15:00 25.6 C 9.05 g/m*3 25.6 C 11.3 km/h
245 11-05-2022 20:20:00 25.4 C 8.95 g/m*3 25.4 C 8.1 km/h
246 11-05-2022 20:25:00 25.2 C 9.08 g/m*3 25.2 C 12.9 km/h
247 11-05-2022 20:30:00 24.8 C 8.65 g/m*3 24.8 C 14.5 km/h
248 11-05-2022 20:35:00 24.6 C 8.78 g/m*3 24.6 C 9.7 km/h
249 11-05-2022 20:40:00 24.4 C 8.9 g/m*3 24.4 C 11.3 km/h
250 11-05-2022 20:45:00 24.2 C 9.24 g/m*3 24.2 C 4.8 km/h
Sensor: Nr:Datum:Temp:Abs-Feuchte:Windchill:Wind:
Aussen-T/F 251 11-05-2022 20:50:00 23.9 C 9.09 g/m*3 23.9 C 9.7 km/h
252 11-05-2022 20:55:00 23.6 C 9.36 g/m*3 23.6 C 6.4 km/h
253 11-05-2022 21:00:00 23.3 C 9.41 g/m*3 23.3 C 3.2 km/h
254 11-05-2022 21:05:00 22.9 C 9.2 g/m*3 22.9 C 8.1 km/h
255 11-05-2022 21:10:00 22.6 C 9.04 g/m*3 22.6 C 8.1 km/h
256 11-05-2022 21:15:00 22.3 C 8.69 g/m*3 22.3 C 8.1 km/h
257 11-05-2022 21:20:00 22.2 C 8.44 g/m*3 22.2 C 11.3 km/h
258 11-05-2022 21:25:00 22.2 C 8.64 g/m*3 22.2 C 8.1 km/h
259 11-05-2022 21:30:00 22.1 C 8.78 g/m*3 22.1 C 6.4 km/h
260 11-05-2022 21:35:00 21.9 C 9.07 g/m*3 21.9 C 6.4 km/h
261 11-05-2022 21:40:00 21.8 C 9.4 g/m*3 21.8 C 6.4 km/h
262 11-05-2022 21:45:00 21.5 C 9.43 g/m*3 21.5 C 4.8 km/h
263 11-05-2022 21:50:00 21.1 C 9.4 g/m*3 21.1 C 4.8 km/h
264 11-05-2022 21:55:00 20.7 C 9.36 g/m*3 20.7 C 6.4 km/h
265 11-05-2022 22:00:00 20.4 C 9.02 g/m*3 20.4 C 6.4 km/h
266 11-05-2022 22:05:00 20.2 C 9.44 g/m*3 20.2 C 3.2 km/h
267 11-05-2022 22:10:00 19.9 C 8.93 g/m*3 19.9 C 4.8 km/h
268 11-05-2022 22:15:00 19.7 C 9.17 g/m*3 19.7 C 3.2 km/h
269 11-05-2022 22:20:00 19.5 C 9.4 g/m*3 19.5 C 1.6 km/h
270 11-05-2022 22:25:00 19.3 C 9.62 g/m*3 19.3 C 1.6 km/h
271 11-05-2022 22:30:00 19 C 9.29 g/m*3 19 C 1.6 km/h
272 11-05-2022 22:35:00 18.7 C 9.45 g/m*3 18.7 C 3.2 km/h
273 11-05-2022 22:40:00 18.4 C 9.59 g/m*3 18.4 C 0 km/h
274 11-05-2022 22:45:00 18.2 C 9.64 g/m*3 18.2 C 0 km/h
275 11-05-2022 22:50:00 17.8 C 9.11 g/m*3 17.8 C 1.6 km/h
Sensor: Nr:Datum:Temp:Abs-Feuchte:Windchill:Wind:
Aussen-T/F 276 11-05-2022 22:55:00 17.6 C 9.45 g/m*3 17.6 C 0 km/h
277 11-05-2022 23:00:00 17.4 C 9.48 g/m*3 17.4 C 0 km/h
278 11-05-2022 23:05:00 17.2 C 9.37 g/m*3 17.2 C 0 km/h
279 11-05-2022 23:10:00 16.9 C 9.35 g/m*3 16.9 C 0 km/h
280 11-05-2022 23:15:00 16.7 C 9.24 g/m*3 16.7 C 0 km/h
281 11-05-2022 23:20:00 16.5 C 9.27 g/m*3 16.5 C 0 km/h
282 11-05-2022 23:25:00 16.3 C 9.16 g/m*3 16.3 C 0 km/h
283 11-05-2022 23:30:00 16.2 C 9.24 g/m*3 16.2 C 0 km/h
284 11-05-2022 23:35:00 16 C 9.26 g/m*3 16 C 1.6 km/h
285 11-05-2022 23:40:00 15.8 C 9.15 g/m*3 15.8 C 0 km/h
286 11-05-2022 23:45:00 15.7 C 9.23 g/m*3 15.7 C 1.6 km/h
287 11-05-2022 23:50:00 15.6 C 9.04 g/m*3 15.6 C 1.6 km/h
288 11-05-2022 23:55:00 15.5 C 9.12 g/m*3 15.5 C 0 km/h

Legende:
   Min
   Max


Maximal/Minimal-Werte vom 11.05.2022 - 11.05.2022

Sensor Min Max Avg
Temp
(Aussen-T/F)
12.5 °C
11-05-2022  05:50:00
30.3 °C
11-05-2022  17:35:00
21.06 °C
Abs-Feuchte
(Aussen-T/F)
8.29 g/m*3
11-05-2022  19:00:00
12.55 g/m*3
11-05-2022  10:55:00
10.23 g/m*3
Windchill
(Aussen-T/F)
12.5 C
11-05-2022  05:50:00
30.3 C
11-05-2022  17:35:00
20.99 C

Die Daten stammen von einer Davis Vantage Pro 2 Wetter-Station und werden unter Linux mit der Software wview2wettercgi und aufbereitet. Alle Angaben erfolgen ohne Gewähr für ihre Vollständigkeit oder Richtigkeit.
Kontakt: Rainer Krienke krienke@uni-koblenz.de . Meine Webseiten an der Uni Koblenz oder privat.
Version: $Revision: 0.78 $